Terminal Aerodrome Forecast
Issued by NWS Pittsburgh, PA

Current Version | Previous Version | Text Only | Print | Product List | Glossary Off
Versions: 1 2 3 4 5 6 7 8 9 10 11 12 13 14 15 16 17 18 19 20 21 22 23 24 25 26 27 28 29 30 31 32 33 34 35 36 37 38 39 40 41

671
FTUS41 KPBZ 282359 CCA
TAFPIT
TAF COR
KPIT 282359Z 2900/3006 VRB03KT P6SM VCSH SCT020 BKN060
     FM290400 00000KT 5SM BR SCT060
     FM290700 00000KT 2SM BR BKN007
     FM291300 28004KT P6SM BKN015
     FM291500 31004KT P6SM BKN025
     FM291700 32005KT P6SM VCSH BKN035=

USA.gov is the U.S. government's official web portal to all federal, state and local government web resources and services.